Time;durP1;ratioP1;P1;durP2;ratioP2;P2;SDS_P1;SDS_P2;PMS_P1;PMS_P2;Temp;Humidity;BMP_temperature;BMP_pressure;BME280_temperature;BME280_humidity;BME280_pressure;Samples;Min_cycle;Max_cycle;Signal;HPM_P1;HPM_P2
2023/05/13 00:01:59;;;;;;;11.10;8.48;;;12.30;99.90;;;;;;5027495;28;20543;-81
2023/05/13 00:04:25;;;;;;;13.65;10.20;;;12.40;99.90;;;;;;5045766;28;20029;-81
2023/05/13 00:06:51;;;;;;;16.27;11.18;;;12.40;99.90;;;;;;5040426;28;20041;-82
2023/05/13 00:09:16;;;;;;;17.25;10.50;;;12.40;99.90;;;;;;5039067;28;20037;-81
2023/05/13 00:11:42;;;;;;;14.02;9.35;;;12.40;99.90;;;;;;5038698;28;20029;-81
2023/05/13 00:14:09;;;;;;;12.88;10.07;;;12.40;99.90;;;;;;5056125;28;20055;-81
2023/05/13 00:16:35;;;;;;;16.67;10.68;;;12.30;99.90;;;;;;5050122;28;20033;-79
2023/05/13 00:19:01;;;;;;;16.23;9.77;;;12.20;99.90;;;;;;5048413;28;20044;-82
2023/05/13 00:21:26;;;;;;;18.23;10.10;;;12.20;99.90;;;;;;5039753;28;20018;-81
2023/05/13 00:23:52;;;;;;;20.88;10.52;;;12.20;99.90;;;;;;5038439;28;20038;-78
2023/05/13 00:26:17;;;;;;;20.38;10.95;;;12.20;99.90;;;;;;5037493;28;20030;-81
2023/05/13 00:28:43;;;;;;;15.70;11.15;;;12.20;99.90;;;;;;5036198;28;20028;-79
2023/05/13 00:31:09;;;;;;;20.25;11.13;;;12.20;99.90;;;;;;5035253;28;20604;-79
2023/05/13 00:33:40;;;;;;;16.05;9.63;;;12.30;99.90;;;;;;5037370;28;20025;-82
2023/05/13 00:36:08;;;;;;;17.48;9.43;;;12.30;99.90;;;;;;5056782;28;20097;-82
2023/05/13 00:38:34;;;;;;;14.88;9.02;;;12.20;99.90;;;;;;5038735;28;20109;-81
2023/05/13 00:41:01;;;;;;;16.63;10.38;;;12.20;99.90;;;;;;5056107;28;20026;-81
2023/05/13 00:43:27;;;;;;;17.20;10.38;;;12.20;99.90;;;;;;5039291;28;20478;-82
2023/05/13 00:45:58;;;;;;;17.95;10.52;;;12.20;99.90;;;;;;5056491;28;20032;-83
2023/05/13 00:48:24;;;;;;;16.33;10.25;;;12.10;99.90;;;;;;5039298;28;20020;-81
2023/05/13 00:50:50;;;;;;;20.67;11.20;;;12.10;99.90;;;;;;5056272;28;20002;-79
2023/05/13 00:53:16;;;;;;;13.48;9.23;;;12.10;99.90;;;;;;5039544;28;20013;-80
2023/05/13 00:55:43;;;;;;;16.45;9.75;;;12.00;99.90;;;;;;5056928;28;20026;-82
2023/05/13 00:58:10;;;;;;;20.58;10.63;;;12.00;99.90;;;;;;5043139;28;20036;-80
2023/05/13 01:00:58;;;;;;;16.48;10.07;;;12.00;99.90;;;;;;5043189;28;20026;-83
2023/05/13 01:04:09;;;;;;;14.90;10.63;;;12.00;99.90;;;;;;5059730;28;20086;-80
2023/05/13 01:07:22;;;;;;;12.05;8.80;;;12.10;99.90;;;;;;5059917;28;20060;-81
2023/05/13 01:10:36;;;;;;;15.25;9.43;;;12.10;99.90;;;;;;5036915;28;20040;-81
2023/05/13 01:13:07;;;;;;;14.35;8.75;;;12.00;99.90;;;;;;5041603;28;20057;-78
2023/05/13 01:15:35;;;;;;;15.18;9.88;;;12.00;99.90;;;;;;5042856;28;20074;-81
2023/05/13 01:18:08;;;;;;;14.60;8.77;;;11.90;99.90;;;;;;5043022;28;20020;-82
2023/05/13 01:20:36;;;;;;;12.93;7.75;;;11.80;99.90;;;;;;5060043;28;20010;-82
2023/05/13 01:23:02;;;;;;;13.50;9.25;;;11.80;99.90;;;;;;5043051;28;20017;-83
2023/05/13 01:25:28;;;;;;;17.48;9.82;;;11.80;99.90;;;;;;5060043;28;20037;-81
2023/05/13 01:27:54;;;;;;;18.65;9.65;;;11.80;99.90;;;;;;5059681;28;20017;-79
2023/05/13 01:30:21;;;;;;;20.38;9.90;;;11.70;99.90;;;;;;5043312;28;20013;-82
2023/05/13 01:32:47;;;;;;;16.92;9.30;;;11.80;99.90;;;;;;5043203;28;20075;-81
2023/05/13 01:35:14;;;;;;;14.30;9.13;;;11.90;99.90;;;;;;5042841;28;20030;-80
2023/05/13 01:37:41;;;;;;;15.90;9.38;;;11.80;99.90;;;;;;5060158;28;20448;-81
2023/05/13 01:40:52;;;;;;;16.23;8.82;;;11.70;99.90;;;;;;5042759;28;20010;-81
2023/05/13 01:43:25;;;;;;;16.90;9.02;;;11.70;99.90;;;;;;5043138;28;20073;-80
2023/05/13 01:45:51;;;;;;;17.48;8.93;;;11.70;99.90;;;;;;5042587;28;20017;-82
2023/05/13 01:48:20;;;;;;;13.68;8.98;;;11.70;99.90;;;;;;5042433;28;20132;-82
2023/05/13 01:50:45;;;;;;;15.50;8.93;;;11.70;99.90;;;;;;5042606;28;20025;-82
2023/05/13 01:53:11;;;;;;;14.07;9.63;;;11.70;99.90;;;;;;5042264;28;20036;-81
2023/05/13 01:55:37;;;;;;;16.13;10.23;;;11.60;99.90;;;;;;5041774;28;20033;-79
2023/05/13 01:58:02;;;;;;;14.95;8.43;;;11.60;99.90;;;;;;5059783;28;20065;-81
2023/05/13 02:00:28;;;;;;;12.70;7.90;;;11.70;99.90;;;;;;5041999;28;20017;-82
2023/05/13 02:02:54;;;;;;;10.35;7.75;;;11.60;99.90;;;;;;5041994;28;20021;-82
2023/05/13 02:05:20;;;;;;;14.75;8.23;;;11.60;99.90;;;;;;5059309;28;20129;-81
2023/05/13 02:07:45;;;;;;;13.80;8.98;;;11.50;99.90;;;;;;5041837;28;20020;-81
2023/05/13 02:10:11;;;;;;;24.63;8.55;;;11.50;99.90;;;;;;5041655;28;20022;-80
2023/05/13 02:12:37;;;;;;;13.52;8.60;;;11.50;99.90;;;;;;5041152;28;20025;-82
2023/05/13 02:15:03;;;;;;;14.77;8.57;;;11.50;99.90;;;;;;5041580;28;20018;-80
2023/05/13 02:17:28;;;;;;;12.70;8.65;;;11.40;99.90;;;;;;5040746;28;20101;-80
2023/05/13 02:19:54;;;;;;;11.27;8.43;;;11.30;99.90;;;;;;5041170;28;20008;-79
2023/05/13 02:22:20;;;;;;;13.80;9.07;;;11.20;99.90;;;;;;5041415;28;20097;-82
2023/05/13 02:24:46;;;;;;;14.70;9.15;;;11.20;99.90;;;;;;5041143;28;20006;-79
2023/05/13 02:27:14;;;;;;;13.77;8.07;;;11.20;99.90;;;;;;5042226;28;20009;-81
2023/05/13 02:29:40;;;;;;;13.35;8.35;;;11.20;99.90;;;;;;5059360;28;20001;-82
2023/05/13 02:32:06;;;;;;;14.25;8.57;;;11.10;99.90;;;;;;5042161;28;20064;-83
2023/05/13 02:34:32;;;;;;;14.50;8.98;;;;;;;;;;5171126;22;20063;-82
2023/05/13 02:36:58;;;;;;;14.82;8.95;;;;;;;;;;5099340;28;20020;-82
2023/05/13 02:39:24;;;;;;;12.38;7.95;;;11.20;99.90;;;;;;5099183;28;20017;-82
2023/05/13 02:41:50;;;;;;;16.55;9.13;;;11.20;99.90;;;;;;5081907;28;20008;-81
2023/05/13 02:44:15;;;;;;;17.17;8.95;;;11.20;99.90;;;;;;5081656;28;20016;-80
2023/05/13 02:46:43;;;;;;;11.43;8.13;;;11.20;99.90;;;;;;5080660;28;20009;-81
2023/05/13 02:49:24;;;;;;;13.60;8.45;;;11.20;99.90;;;;;;5081793;28;20012;-80
2023/05/13 02:51:49;;;;;;;13.02;8.63;;;11.20;99.90;;;;;;5082161;28;20025;-82
2023/05/13 02:54:15;;;;;;;12.30;8.68;;;11.20;99.90;;;;;;5082012;28;20024;-81
2023/05/13 02:56:40;;;;;;;15.20;8.77;;;11.10;99.90;;;;;;5081704;28;20008;-81
2023/05/13 02:59:06;;;;;;;11.48;7.47;;;11.10;99.90;;;;;;5081781;28;20009;-80
2023/05/13 03:01:32;;;;;;;13.07;8.18;;;11.10;99.90;;;;;;5099215;28;20020;-81
2023/05/13 03:03:57;;;;;;;15.35;8.40;;;11.10;99.90;;;;;;5077861;28;20024;-81
2023/05/13 03:06:23;;;;;;;14.88;8.80;;;11.10;99.90;;;;;;5078298;28;20024;-80
2023/05/13 03:08:48;;;;;;;15.82;9.43;;;11.10;99.90;;;;;;5078255;28;20028;-80
2023/05/13 03:11:14;;;;;;;13.25;8.63;;;11.00;99.90;;;;;;5077157;28;20058;-81
2023/05/13 03:13:40;;;;;;;14.07;8.45;;;11.00;99.90;;;;;;5078167;28;20029;-82
2023/05/13 03:16:05;;;;;;;13.82;8.45;;;11.00;99.90;;;;;;5078677;28;20033;-81
2023/05/13 03:18:31;;;;;;;14.13;8.50;;;11.10;99.90;;;;;;5078647;28;20059;-79
2023/05/13 03:20:57;;;;;;;15.38;9.38;;;11.10;99.90;;;;;;5077788;28;20013;-82
2023/05/13 03:23:23;;;;;;;24.73;9.77;;;11.10;99.90;;;;;;5077933;28;20028;-82
2023/05/13 03:25:48;;;;;;;12.70;7.97;;;11.10;99.90;;;;;;5077728;28;20013;-82
2023/05/13 03:28:14;;;;;;;13.07;8.63;;;11.10;99.90;;;;;;5078012;28;20019;-80
2023/05/13 03:30:39;;;;;;;12.98;7.88;;;11.10;99.90;;;;;;5077933;28;20005;-80
2023/05/13 03:33:08;;;;;;;12.88;8.95;;;11.00;99.90;;;;;;5077830;28;20040;-79
2023/05/13 03:35:33;;;;;;;15.43;8.45;;;10.70;99.90;;;;;;5077505;28;20037;-79
2023/05/13 03:37:59;;;;;;;12.13;8.75;;;11.00;99.90;;;;;;5077463;28;20028;-79
2023/05/13 03:40:25;;;;;;;12.88;9.13;;;10.90;99.90;;;;;;5078033;28;20048;-81
2023/05/13 03:42:50;;;;;;;13.00;9.18;;;11.00;99.90;;;;;;5078227;28;20063;-82
2023/05/13 03:45:16;;;;;;;13.93;8.50;;;10.90;99.90;;;;;;5077970;28;20081;-82
2023/05/13 03:47:41;;;;;;;13.75;8.65;;;11.00;99.90;;;;;;5077739;28;20017;-79
2023/05/13 03:50:08;;;;;;;15.00;9.27;;;10.90;99.90;;;;;;5078256;28;20017;-81
2023/05/13 03:52:34;;;;;;;11.75;8.20;;;;;;;;;;5078217;28;20005;-79
2023/05/13 03:54:59;;;;;;;11.68;8.43;;;10.90;99.90;;;;;;5077744;28;20043;-82
2023/05/13 03:57:25;;;;;;;14.02;9.07;;;11.00;99.90;;;;;;5077690;28;20013;-80
2023/05/13 04:00:17;;;;;;;15.32;9.25;;;10.90;99.90;;;;;;5078428;28;20028;-78
2023/05/13 04:02:42;;;;;;;12.48;7.55;;;10.90;99.90;;;;;;5077527;28;20025;-81
2023/05/13 04:05:08;;;;;;;12.60;7.85;;;10.90;99.90;;;;;;5077539;28;20054;-81
2023/05/13 04:07:57;;;;;;;12.00;7.63;;;10.90;99.90;;;;;;5074795;28;20028;-82
2023/05/13 04:10:23;;;;;;;12.98;9.18;;;10.90;99.90;;;;;;5069200;28;20029;-79
2023/05/13 04:12:54;;;;;;;11.32;7.45;;;10.90;99.90;;;;;;5060321;28;20016;-82
2023/05/13 04:15:24;;;;;;;13.25;7.15;;;11.00;99.90;;;;;;5074756;28;20065;-81
2023/05/13 04:17:51;;;;;;;13.63;6.90;;;10.90;99.90;;;;;;5075683;28;20029;-81
2023/05/13 04:20:17;;;;;;;13.98;7.68;;;10.90;99.90;;;;;;5075466;28;20005;-81
2023/05/13 04:22:42;;;;;;;10.20;6.63;;;11.00;99.90;;;;;;5076481;28;20025;-80
2023/05/13 04:25:08;;;;;;;23.27;7.28;;;11.00;99.90;;;;;;5075863;28;20019;-81
2023/05/13 04:27:34;;;;;;;11.57;6.30;;;11.10;99.90;;;;;;5076282;28;20067;-82
2023/05/13 04:30:00;;;;;;;10.13;6.32;;;11.00;99.90;;;;;;5076027;28;20029;-82
2023/05/13 04:32:25;;;;;;;9.57;7.32;;;11.00;99.90;;;;;;5079834;28;20029;-82
2023/05/13 04:34:52;;;;;;;9.15;6.50;;;11.00;99.90;;;;;;5079531;28;20025;-82
2023/05/13 04:37:18;;;;;;;11.88;6.97;;;11.00;99.90;;;;;;5080179;28;20052;-80
2023/05/13 04:39:47;;;;;;;10.48;7.18;;;11.10;99.90;;;;;;5088656;22;20040;-80
2023/05/13 04:42:13;;;;;;;8.63;6.63;;;11.00;99.90;;;;;;5099849;28;20054;-80
2023/05/13 04:44:39;;;;;;;10.60;7.03;;;11.10;99.90;;;;;;5099665;28;20024;-81
2023/05/13 04:47:05;;;;;;;9.57;5.70;;;11.10;99.90;;;;;;5100355;28;20056;-80
2023/05/13 04:51:56;;;;;;;12.77;6.15;;;;;;;;;;5422881;22;20111;-80
2023/05/13 04:54:22;;;;;;;9.93;6.75;;;11.00;99.90;;;;;;5082703;28;20055;-82
2023/05/13 04:56:48;;;;;;;10.30;7.53;;;11.00;99.90;;;;;;5095552;28;20076;-80
2023/05/13 04:59:14;;;;;;;12.10;7.78;;;11.00;99.90;;;;;;5078790;28;20103;-80
2023/05/13 05:01:39;;;;;;;10.32;6.40;;;11.00;99.90;;;;;;5095498;28;20020;-80
2023/05/13 05:04:05;;;;;;;10.00;7.20;;;11.00;99.90;;;;;;5081018;28;20040;-78
2023/05/13 05:06:31;;;;;;;15.95;7.68;;;11.00;99.90;;;;;;5080161;28;20031;-80
2023/05/13 05:08:57;;;;;;;9.40;6.47;;;11.10;99.90;;;;;;5081053;28;20100;-79
2023/05/13 05:11:23;;;;;;;13.10;8.20;;;11.10;99.90;;;;;;5081326;28;20055;-79
2023/05/13 05:14:09;;;;;;;10.25;6.53;;;11.10;99.90;;;;;;5082140;28;20035;-79
2023/05/13 05:16:35;;;;;;;11.68;7.82;;;11.20;99.90;;;;;;5098915;28;20019;-83
2023/05/13 05:19:00;;;;;;;10.38;7.22;;;11.10;99.90;;;;;;5083411;28;20032;-79
2023/05/13 05:21:26;;;;;;;15.65;7.45;;;11.10;99.90;;;;;;5082633;28;20060;-79
2023/05/13 05:23:52;;;;;;;12.20;7.68;;;11.20;99.90;;;;;;5083119;28;20013;-79
2023/05/13 05:26:21;;;;;;;8.65;6.53;;;11.20;99.90;;;;;;5082501;28;20016;-80
2023/05/13 05:28:46;;;;;;;12.30;8.20;;;11.20;99.90;;;;;;5081731;28;20013;-81
2023/05/13 05:31:12;;;;;;;10.90;7.35;;;11.20;99.90;;;;;;5081751;28;20029;-79
2023/05/13 05:33:38;;;;;;;13.13;7.45;;;11.10;99.90;;;;;;5082918;28;20008;-79
2023/05/13 05:36:16;;;;;;;14.38;6.65;;;11.10;99.90;;;;;;5082935;28;20038;-82
2023/05/13 05:38:46;;;;;;;14.13;7.47;;;11.10;99.90;;;;;;5083187;28;20029;-80
2023/05/13 05:41:12;;;;;;;10.52;7.18;;;11.10;99.90;;;;;;5082904;28;20067;-79
2023/05/13 05:43:41;;;;;;;9.20;6.18;;;11.10;99.90;;;;;;5076268;28;20063;-80
2023/05/13 05:46:07;;;;;;;11.77;6.82;;;11.20;99.90;;;;;;5082268;28;20035;-79
2023/05/13 05:48:33;;;;;;;12.98;6.07;;;11.20;99.90;;;;;;5078996;28;20037;-79
2023/05/13 05:50:58;;;;;;;8.57;6.55;;;11.20;99.90;;;;;;5081004;28;20055;-80
2023/05/13 05:53:24;;;;;;;9.93;6.55;;;11.30;99.90;;;;;;5118958;28;20494;-79
2023/05/13 05:55:57;;;;;;;8.90;6.30;;;11.30;99.90;;;;;;5101842;28;20024;-81
2023/05/13 05:58:57;;;;;;;9.32;6.93;;;11.30;99.90;;;;;;5098377;28;20050;-81
2023/05/13 06:01:23;;;;;;;10.02;6.00;;;11.30;99.90;;;;;;5100609;28;20039;-79
2023/05/13 06:03:54;;;;;;;7.80;5.65;;;11.50;99.90;;;;;;5102428;28;20043;-81
2023/05/13 06:06:39;;;;;;;9.23;6.10;;;11.50;99.90;;;;;;5117319;28;20024;-79
2023/05/13 06:09:05;;;;;;;7.97;5.55;;;11.40;99.90;;;;;;5102489;28;20027;-79
2023/05/13 06:11:31;;;;;;;14.38;5.88;;;11.50;99.90;;;;;;5120040;28;20024;-81
2023/05/13 06:13:56;;;;;;;20.30;9.98;;;11.70;99.90;;;;;;5102803;28;20035;-82
2023/05/13 06:16:22;;;;;;;10.82;5.88;;;11.70;99.90;;;;;;5118114;28;20035;-81
2023/05/13 06:18:48;;;;;;;7.80;5.95;;;11.70;99.90;;;;;;5120347;28;20004;-83
2023/05/13 06:21:14;;;;;;;6.05;5.10;;;11.80;99.90;;;;;;5098386;28;20028;-81
2023/05/13 06:26:15;;;;;;;11.82;7.40;;;;;;;;;;5208956;22;20053;-83
2023/05/13 06:28:41;;;;;;;18.33;9.88;;;;;;;;;;5078404;28;20045;-82
2023/05/13 06:31:07;;;;;;;12.35;7.70;;;8.30;99.90;;;;;;5078231;28;20040;-82
2023/05/13 06:33:32;;;;;;;7.47;5.75;;;11.70;99.90;;;;;;5061261;28;20005;-81
2023/05/13 06:36:18;;;;;;;9.93;7.00;;;11.70;99.90;;;;;;5078973;28;20315;-80
2023/05/13 06:38:43;;;;;;;9.63;6.63;;;11.60;99.90;;;;;;5044828;28;20081;-82
2023/05/13 06:41:12;;;;;;;6.97;5.43;;;11.60;99.90;;;;;;5061539;28;20056;-82
2023/05/13 06:43:38;;;;;;;5.75;4.25;;;11.70;99.90;;;;;;5058808;28;20048;-81
2023/05/13 06:46:03;;;;;;;6.45;5.05;;;11.70;99.90;;;;;;5078844;28;20073;-81
2023/05/13 06:48:29;;;;;;;5.90;4.75;;;11.70;99.90;;;;;;5061204;28;20017;-81
2023/05/13 06:50:54;;;;;;;7.65;5.00;;;11.80;99.90;;;;;;5061055;28;20001;-79
2023/05/13 06:53:20;;;;;;;4.85;4.35;;;11.80;99.90;;;;;;5077955;28;20061;-81
2023/05/13 06:55:46;;;;;;;6.60;5.90;;;11.90;99.90;;;;;;5061306;28;20029;-81
2023/05/13 06:58:12;;;;;;;6.55;5.15;;;11.80;99.90;;;;;;5061366;28;20013;-84
2023/05/13 07:00:42;;;;;;;6.68;4.15;;;11.80;99.90;;;;;;5077982;28;20067;-82
2023/05/13 07:03:07;;;;;;;;;;;11.80;99.90;;;;;;5232185;23;20049;-82
2023/05/13 07:05:33;;;;;;;5.90;4.20;;;11.60;99.90;;;;;;5065844;28;20054;-80
2023/05/13 07:08:00;;;;;;;6.22;5.22;;;11.70;99.90;;;;;;5034219;28;20056;-80
2023/05/13 07:10:26;;;;;;;5.65;4.53;;;11.70;99.90;;;;;;5033112;28;20012;-81
2023/05/13 07:12:51;;;;;;;7.32;4.55;;;11.70;99.90;;;;;;5043747;28;20533;-80
2023/05/13 07:15:17;;;;;;;5.25;4.50;;;11.70;99.90;;;;;;5030273;28;20021;-80
2023/05/13 07:17:43;;;;;;;5.75;4.47;;;11.70;99.90;;;;;;5030642;28;20087;-79
2023/05/13 07:20:09;;;;;;;6.18;4.88;;;11.60;99.90;;;;;;5029166;28;20033;-80
2023/05/13 07:22:35;;;;;;;5.13;4.63;;;11.70;99.90;;;;;;5032492;28;20040;-80
2023/05/13 07:25:00;;;;;;;6.43;5.35;;;11.70;99.90;;;;;;5034161;28;20518;-81
2023/05/13 07:27:26;;;;;;;5.53;4.53;;;11.80;99.90;;;;;;5038574;28;20025;-80
2023/05/13 07:29:52;;;;;;;5.28;4.28;;;11.80;99.90;;;;;;5049967;28;20030;-80
2023/05/13 07:32:17;;;;;;;8.77;4.53;;;11.80;99.90;;;;;;5044673;28;20026;-81
2023/05/13 07:34:43;;;;;;;5.32;4.40;;;11.80;99.90;;;;;;5022749;28;20539;-81
2023/05/13 07:37:09;;;;;;;5.97;4.82;;;11.80;99.90;;;;;;5031522;28;20093;-79
2023/05/13 07:39:35;;;;;;;4.55;4.15;;;11.70;99.90;;;;;;5049925;28;20037;-82
2023/05/13 07:42:01;;;;;;;7.55;4.57;;;11.70;99.90;;;;;;5056945;28;20028;-83
2023/05/13 07:44:27;;;;;;;5.25;4.35;;;;;;;;;;5057298;28;20024;-81
2023/05/13 07:46:53;;;;;;;9.70;5.88;;;;;;;;;;5053303;28;20012;-80
2023/05/13 07:49:20;;;;;;;10.10;4.95;;;11.80;99.90;;;;;;5052664;28;20033;-81
2023/05/13 07:51:46;;;;;;;11.63;5.35;;;;;;;;;;5046957;28;20021;-81
2023/05/13 07:54:12;;;;;;;5.88;5.00;;;;;;;;;;5051262;28;20025;-82
2023/05/13 07:56:38;;;;;;;5.45;4.70;;;;;;;;;;5056069;28;20018;-81
2023/05/13 07:59:05;;;;;;;6.57;4.85;;;;;;;;;;5340823;22;20053;-82
2023/05/13 08:01:32;;;;;;;17.33;9.20;;;;;;;;;;5041236;28;20021;-81
2023/05/13 08:03:58;;;;;;;8.75;6.32;;;;;;;;;;5074551;22;20059;-82
2023/05/13 08:06:24;;;;;;;7.88;5.57;;;;;;;;;;5080774;28;20024;-83
2023/05/13 08:08:53;;;;;;;6.95;5.55;;;;;;;;;;5064762;28;20013;-82
2023/05/13 08:11:41;;;;;;;12.85;8.68;;;11.90;99.90;;;;;;5080806;28;20036;-80
2023/05/13 08:14:07;;;;;;;6.87;5.07;;;;;;;;;;5090730;22;20055;-82
2023/05/13 08:16:36;;;;;;;6.22;4.65;;;11.90;99.90;;;;;;5045868;28;20029;-81
2023/05/13 08:19:02;;;;;;;5.07;4.20;;;11.80;99.90;;;;;;5040100;28;20351;-80
2023/05/13 08:21:28;;;;;;;5.65;4.80;;;11.80;99.90;;;;;;5060678;28;20025;-81
2023/05/13 08:23:54;;;;;;;5.90;4.75;;;11.70;99.90;;;;;;5050706;28;20033;-79
2023/05/13 08:26:20;;;;;;;8.73;5.60;;;11.90;99.90;;;;;;5019128;28;20037;-78
2023/05/13 08:28:45;;;;;;;6.78;4.88;;;12.10;99.90;;;;;;5029113;28;20026;-80
2023/05/13 08:31:11;;;;;;;7.90;5.85;;;12.30;99.90;;;;;;5028862;28;20017;-79
2023/05/13 08:33:38;;;;;;;4.07;3.75;;;12.20;99.90;;;;;;5029974;28;20033;-80
2023/05/13 08:36:04;;;;;;;6.40;4.72;;;12.10;99.90;;;;;;5030783;28;20391;-79
2023/05/13 08:38:32;;;;;;;6.50;5.10;;;12.00;99.90;;;;;;5030982;28;20040;-80
2023/05/13 08:40:58;;;;;;;6.78;4.82;;;12.10;99.90;;;;;;5048652;28;20316;-80
2023/05/13 08:43:26;;;;;;;4.22;3.83;;;12.20;99.90;;;;;;5047721;28;20040;-79
2023/05/13 08:45:53;;;;;;;5.55;4.50;;;12.30;99.90;;;;;;5048191;28;20543;-79
2023/05/13 08:48:21;;;;;;;7.22;4.05;;;12.30;99.90;;;;;;5048844;28;20036;-80
2023/05/13 08:50:48;;;;;;;6.97;4.68;;;12.30;99.90;;;;;;5022838;28;20025;-80
2023/05/13 08:53:16;;;;;;;4.88;4.20;;;12.40;99.90;;;;;;5032290;28;20448;-81
2023/05/13 08:55:41;;;;;;;5.72;5.00;;;12.60;99.90;;;;;;5035689;28;20469;-80
2023/05/13 09:01:13;;;;;;;4.68;4.20;;;;;;;;;;5275936;22;20037;-78
2023/05/13 09:04:01;;;;;;;5.30;4.45;;;13.00;99.90;;;;;;5061886;28;20079;-81
2023/05/13 09:12:02;;;;;;;8.68;4.88;;;12.90;99.90;;;;;;5029782;28;20041;-80
2023/05/13 09:14:33;;;;;;;8.40;5.93;;;12.80;99.90;;;;;;5016844;28;20026;-82
2023/05/13 09:17:09;;;;;;;12.75;8.05;;;12.70;99.90;;;;;;5007194;28;20099;-81
2023/05/13 09:19:35;;;;;;;6.38;4.18;;;12.90;99.90;;;;;;5003959;28;20117;-79
2023/05/13 09:22:01;;;;;;;15.20;6.88;;;12.80;99.90;;;;;;4993902;28;20125;-78
2023/05/13 09:24:27;;;;;;;10.55;6.60;;;12.80;99.90;;;;;;4993067;28;20501;-78
2023/05/13 09:29:29;;;;;;;5.00;3.65;;;13.10;99.90;;;;;;5101527;22;20457;-84
2023/05/13 09:31:57;;;;;;;4.38;3.90;;;13.00;99.90;;;;;;5033737;28;20025;-80
2023/05/13 09:34:28;;;;;;;5.25;3.78;;;13.30;99.90;;;;;;5172726;22;20862;-82
2023/05/13 09:37:35;;;;;;;8.07;5.15;;;13.40;99.90;;;;;;4987768;28;20137;-80
2023/05/13 09:40:02;;;;;;;4.95;3.88;;;13.40;99.90;;;;;;4977176;28;20027;-81
2023/05/13 09:42:31;;;;;;;4.88;4.00;;;;;;;;;;5110945;23;20031;-80
2023/05/13 09:52:41;;;;;;;4.85;3.75;;;13.50;99.90;;;;;;5005861;28;20116;-84
2023/05/13 09:55:17;;;;;;;4.10;3.78;;;13.30;99.90;;;;;;5242180;22;20431;-80
2023/05/13 09:57:43;;;;;;;4.10;3.25;;;;;;;;;;5319608;22;20057;-81
2023/05/13 10:00:09;;;;;;;4.10;3.67;;;;;;;;;;5014363;28;20030;-79
2023/05/13 10:02:35;;;;;;;6.30;3.97;;;13.30;99.90;;;;;;5007793;28;20071;-78
2023/05/13 10:05:01;;;;;;;5.75;4.57;;;13.50;99.90;;;;;;5007770;28;20095;-81
2023/05/13 10:07:27;;;;;;;5.68;3.90;;;;;;;;;;4999591;28;20034;-80
2023/05/13 10:10:00;;;;;;;3.35;3.05;;;14.10;99.90;;;;;;4999940;28;20025;-81
2023/05/13 10:12:27;;;;;;;4.65;3.70;;;14.20;99.90;;;;;;5009962;28;20034;-79
2023/05/13 10:14:54;;;;;;;8.32;4.38;;;14.20;99.90;;;;;;5122359;23;20063;-82
2023/05/13 10:18:03;;;;;;;5.63;4.25;;;14.30;99.90;;;;;;5032513;28;20052;-82
2023/05/13 10:30:52;;;;;;;7.95;4.22;;;15.00;99.90;;;;;;5041187;23;20058;-79
2023/05/13 10:33:18;;;;;;;3.58;3.28;;;14.90;99.90;;;;;;5015000;28;20028;-77
2023/05/13 10:36:18;;;;;;;3.83;3.53;;;14.80;99.90;;;;;;5015773;28;20116;-79
2023/05/13 10:42:34;;;;;;;5.07;3.10;;;15.90;99.90;;;;;;5048441;28;20052;-78
2023/05/13 10:45:00;;;;;;;3.58;3.05;;;15.90;99.90;;;;;;5014108;28;20588;-80
2023/05/13 10:47:26;;;;;;;3.00;2.78;;;15.80;99.90;;;;;;5013418;28;20030;-80
2023/05/13 10:49:52;;;;;;;3.40;3.10;;;15.60;99.90;;;;;;5037149;28;20025;-80
2023/05/13 10:52:18;;;;;;;4.50;3.17;;;15.90;99.90;;;;;;5034425;28;20590;-80
2023/05/13 10:55:02;;;;;;;3.25;2.90;;;16.10;99.90;;;;;;5041079;28;20032;-81
2023/05/13 10:57:36;;;;;;;3.88;3.17;;;16.20;99.90;;;;;;5038627;28;20040;-79
2023/05/13 11:00:15;;;;;;;3.97;3.25;;;16.10;99.90;;;;;;5040184;28;20029;-79
2023/05/13 11:02:41;;;;;;;3.50;3.08;;;16.10;99.90;;;;;;5044852;28;20067;-80
2023/05/13 11:05:07;;;;;;;3.58;2.55;;;16.20;99.90;;;;;;5034532;28;20095;-79
2023/05/13 11:07:40;;;;;;;11.90;4.13;;;16.30;99.90;;;;;;5043968;28;20270;-79
2023/05/13 11:10:27;;;;;;;5.32;2.78;;;16.20;99.90;;;;;;5024839;28;20013;-80
2023/05/13 11:13:15;;;;;;;3.75;3.05;;;16.20;99.90;;;;;;5023654;28;20317;-80
2023/05/13 11:15:47;;;;;;;3.17;2.88;;;16.10;99.90;;;;;;5020166;28;20056;-80
2023/05/13 11:18:13;;;;;;;3.05;2.70;;;15.70;99.90;;;;;;5063096;28;20009;-81
2023/05/13 11:20:39;;;;;;;3.88;3.42;;;15.60;99.90;;;;;;5045679;28;20022;-81
2023/05/13 11:23:07;;;;;;;2.80;2.60;;;15.30;99.90;;;;;;5017319;28;20040;-81
2023/05/13 11:25:33;;;;;;;3.75;3.05;;;15.40;99.90;;;;;;5035875;28;20025;-80
2023/05/13 11:27:58;;;;;;;2.58;2.40;;;15.40;99.90;;;;;;5048938;28;20577;-80
2023/05/13 11:30:27;;;;;;;2.95;2.75;;;16.00;99.90;;;;;;5032376;28;20048;-79
2023/05/13 11:32:58;;;;;;;2.78;2.58;;;16.10;99.90;;;;;;5047659;28;20029;-80
2023/05/13 11:35:31;;;;;;;2.70;2.50;;;16.30;99.90;;;;;;5054799;28;20033;-80
2023/05/13 11:37:59;;;;;;;3.63;3.10;;;16.40;99.90;;;;;;5049955;28;20069;-81
2023/05/13 11:40:25;;;;;;;4.55;3.20;;;16.80;99.90;;;;;;5057919;28;20033;-80
2023/05/13 11:42:52;;;;;;;2.75;2.22;;;16.80;99.90;;;;;;5055534;28;20120;-80
2023/05/13 11:45:19;;;;;;;3.92;2.70;;;16.80;99.90;;;;;;5042705;28;20041;-80
2023/05/13 11:47:45;;;;;;;4.80;3.08;;;17.00;99.90;;;;;;5035890;28;20028;-78
2023/05/13 11:50:21;;;;;;;3.45;2.95;;;17.10;99.90;;;;;;5050708;28;20010;-81
2023/05/13 11:52:54;;;;;;;3.08;2.72;;;17.20;99.90;;;;;;5042427;28;20022;-79
2023/05/13 11:55:27;;;;;;;4.72;2.75;;;17.30;99.90;;;;;;5044673;28;20021;-81
2023/05/13 11:57:53;;;;;;;5.07;2.83;;;17.40;99.90;;;;;;5036946;28;20032;-78
2023/05/13 12:00:27;;;;;;;2.63;2.35;;;17.70;99.90;;;;;;5034189;28;20558;-78
2023/05/13 12:02:54;;;;;;;2.13;1.92;;;17.70;99.90;;;;;;5015012;28;20180;-78
2023/05/13 12:05:20;;;;;;;3.55;3.00;;;17.80;99.90;;;;;;5023423;28;20025;-78
2023/05/13 12:07:46;;;;;;;3.47;2.90;;;17.40;99.90;;;;;;5028513;28;20387;-77
2023/05/13 12:10:12;;;;;;;2.72;2.53;;;17.10;99.90;;;;;;5026699;28;20053;-78
2023/05/13 12:12:40;;;;;;;3.00;2.58;;;17.20;99.90;;;;;;5027628;28;20022;-78
2023/05/13 12:15:09;;;;;;;3.00;2.67;;;17.20;99.90;;;;;;5026823;28;20026;-77
2023/05/13 12:17:35;;;;;;;2.90;2.50;;;16.70;99.90;;;;;;5029857;28;20418;-78
2023/05/13 12:20:14;;;;;;;3.08;2.78;;;16.70;99.90;;;;;;5027190;28;20111;-78
2023/05/13 12:22:42;;;;;;;3.20;2.90;;;16.90;99.90;;;;;;5028137;28;20030;-79
2023/05/13 12:25:33;;;;;;;2.80;2.60;;;17.00;99.90;;;;;;5028091;28;20103;-78
2023/05/13 12:28:18;;;;;;;2.60;2.40;;;16.90;99.90;;;;;;5027820;28;20486;-78
2023/05/13 12:30:53;;;;;;;2.78;2.58;;;17.00;99.90;;;;;;5031804;28;20081;-78
2023/05/13 12:33:23;;;;;;;4.00;2.40;;;17.20;99.90;;;;;;5031981;28;20084;-79
2023/05/13 12:35:51;;;;;;;2.22;2.03;;;17.40;99.90;;;;;;5037668;28;20030;-79
2023/05/13 12:38:19;;;;;;;1.92;1.83;;;17.00;99.90;;;;;;5038030;28;20021;-78
2023/05/13 12:40:48;;;;;;;3.95;1.98;;;17.00;99.90;;;;;;5031686;28;20108;-78
2023/05/13 12:43:15;;;;;;;;;;;17.20;99.90;;;;;;5034142;28;20033;-79
2023/05/13 12:45:45;;;;;;;3.15;1.73;;;17.10;99.90;;;;;;5033076;28;19906;-79
2023/05/13 12:48:13;;;;;;;1.92;1.77;;;16.90;99.90;;;;;;5035099;28;20029;-79
2023/05/13 12:50:38;;;;;;;1.60;1.45;;;17.20;99.50;;;;;;5031915;28;20029;-79
2023/05/13 12:53:04;;;;;;;1.50;1.40;;;17.40;99.00;;;;;;5034593;28;20040;-79
2023/05/13 12:55:30;;;;;;;1.75;1.65;;;17.30;99.20;;;;;;5036177;28;20032;-78
2023/05/13 12:58:00;;;;;;;3.45;2.05;;;17.30;99.40;;;;;;5037056;28;20478;-80
2023/05/13 13:00:26;;;;;;;2.67;2.42;;;17.40;97.70;;;;;;5035216;28;20062;-79
2023/05/13 13:02:52;;;;;;;2.75;2.22;;;17.30;99.00;;;;;;5033367;28;20029;-78
2023/05/13 13:05:22;;;;;;;3.20;1.90;;;17.40;99.50;;;;;;5032679;28;20580;-79
2023/05/13 13:07:48;;;;;;;1.92;1.70;;;17.60;99.90;;;;;;5036477;28;20025;-78
2023/05/13 13:10:14;;;;;;;1.70;1.60;;;17.60;97.30;;;;;;5030396;28;20041;-78
2023/05/13 13:12:40;;;;;;;2.38;2.00;;;17.80;99.20;;;;;;5032159;28;20032;-78
2023/05/13 13:15:08;;;;;;;2.88;2.38;;;17.80;99.90;;;;;;5030903;28;20026;-77
2023/05/13 13:17:33;;;;;;;2.25;2.03;;;17.70;99.90;;;;;;5033351;28;20056;-78
2023/05/13 13:19:59;;;;;;;2.22;2.10;;;17.40;99.90;;;;;;5033313;28;20506;-78
2023/05/13 13:22:28;;;;;;;2.28;2.00;;;17.30;99.90;;;;;;5031358;28;20083;-78
2023/05/13 13:24:54;;;;;;;2.45;1.77;;;17.00;99.90;;;;;;5031243;28;20037;-77
2023/05/13 13:27:19;;;;;;;2.72;2.03;;;17.10;99.90;;;;;;5033823;28;20025;-79
2023/05/13 13:29:45;;;;;;;2.22;1.73;;;17.40;99.90;;;;;;5032107;28;20113;-78
2023/05/13 13:32:12;;;;;;;1.20;1.10;;;17.50;99.50;;;;;;5033316;28;20033;-79
2023/05/13 13:34:38;;;;;;;1.00;1.00;;;18.00;96.90;;;;;;5031148;28;20029;-78